sensor_id;sensor_type;location;lat;lon;timestamp;P1;durP1;ratioP1;P2;durP2;ratioP2
1753;SDS011;58380;48.312;9.246;2022-12-11T07:28:17;29.35;;;13.13;;
1753;SDS011;58380;48.312;9.246;2022-12-11T07:30:42;27.25;;;12.60;;
1753;SDS011;58380;48.312;9.246;2022-12-11T07:33:07;28.97;;;12.57;;
1753;SDS011;58380;48.312;9.246;2022-12-11T07:35:33;26.25;;;13.27;;
1753;SDS011;58380;48.312;9.246;2022-12-11T07:37:59;39.55;;;18.77;;
1753;SDS011;58380;48.312;9.246;2022-12-11T07:40:25;36.78;;;17.35;;
1753;SDS011;58380;48.312;9.246;2022-12-11T07:42:51;42.42;;;18.23;;
1753;SDS011;58380;48.312;9.246;2022-12-11T07:45:16;39.43;;;19.07;;
1753;SDS011;58380;48.312;9.246;2022-12-11T07:47:42;55.10;;;24.33;;
1753;SDS011;58380;48.312;9.246;2022-12-11T07:50:07;57.57;;;26.77;;
1753;SDS011;58380;48.312;9.246;2022-12-11T07:52:33;43.83;;;19.88;;
1753;SDS011;58380;48.312;9.246;2022-12-11T07:54:59;26.40;;;12.35;;
1753;SDS011;58380;48.312;9.246;2022-12-11T07:57:24;34.53;;;16.27;;
1753;SDS011;58380;48.312;9.246;2022-12-11T07:59:49;75.88;;;28.23;;
1753;SDS011;58380;48.312;9.246;2022-12-11T08:02:15;191.13;;;58.35;;
1753;SDS011;58380;48.312;9.246;2022-12-11T08:04:40;160.80;;;52.88;;
1753;SDS011;58380;48.312;9.246;2022-12-11T08:07:06;149.20;;;47.70;;
1753;SDS011;58380;48.312;9.246;2022-12-11T08:09:34;126.65;;;43.58;;
1753;SDS011;58380;48.312;9.246;2022-12-11T08:11:59;91.73;;;34.17;;
1753;SDS011;58380;48.312;9.246;2022-12-11T08:14:25;90.57;;;32.00;;
1753;SDS011;58380;48.312;9.246;2022-12-11T08:16:50;34.15;;;14.38;;
1753;SDS011;58380;48.312;9.246;2022-12-11T08:19:16;28.53;;;12.47;;
1753;SDS011;58380;48.312;9.246;2022-12-11T08:21:42;37.88;;;17.23;;
1753;SDS011;58380;48.312;9.246;2022-12-11T08:24:08;46.45;;;18.63;;
1753;SDS011;58380;48.312;9.246;2022-12-11T08:26:34;34.13;;;15.13;;
1753;SDS011;58380;48.312;9.246;2022-12-11T08:28:59;35.92;;;13.75;;
1753;SDS011;58380;48.312;9.246;2022-12-11T08:31:26;30.50;;;12.63;;
1753;SDS011;58380;48.312;9.246;2022-12-11T08:33:54;36.30;;;15.27;;
1753;SDS011;58380;48.312;9.246;2022-12-11T08:36:21;39.92;;;15.20;;
1753;SDS011;58380;48.312;9.246;2022-12-11T08:38:48;35.70;;;14.70;;
1753;SDS011;58380;48.312;9.246;2022-12-11T08:41:18;37.72;;;15.07;;
1753;SDS011;58380;48.312;9.246;2022-12-11T08:43:48;36.33;;;15.27;;
1753;SDS011;58380;48.312;9.246;2022-12-11T08:46:18;88.13;;;30.98;;
1753;SDS011;58380;48.312;9.246;2022-12-11T08:48:44;69.78;;;26.23;;
1753;SDS011;58380;48.312;9.246;2022-12-11T08:51:11;84.80;;;31.37;;
1753;SDS011;58380;48.312;9.246;2022-12-11T08:53:39;181.52;;;54.90;;
1753;SDS011;58380;48.312;9.246;2022-12-11T08:56:07;311.10;;;91.90;;
1753;SDS011;58380;48.312;9.246;2022-12-11T08:58:36;190.43;;;58.05;;
1753;SDS011;58380;48.312;9.246;2022-12-11T09:01:05;73.43;;;28.27;;
1753;SDS011;58380;48.312;9.246;2022-12-11T09:03:37;58.13;;;22.35;;
1753;SDS011;58380;48.312;9.246;2022-12-11T09:06:07;52.30;;;22.73;;
1753;SDS011;58380;48.312;9.246;2022-12-11T09:08:36;79.07;;;29.17;;
1753;SDS011;58380;48.312;9.246;2022-12-11T09:11:14;75.18;;;29.23;;
1753;SDS011;58380;48.312;9.246;2022-12-11T09:13:43;82.13;;;32.13;;
1753;SDS011;58380;48.312;9.246;2022-12-11T09:16:10;75.85;;;29.40;;
1753;SDS011;58380;48.312;9.246;2022-12-11T09:18:38;75.20;;;28.30;;
1753;SDS011;58380;48.312;9.246;2022-12-11T09:21:06;76.05;;;29.67;;
1753;SDS011;58380;48.312;9.246;2022-12-11T09:23:35;58.42;;;26.30;;
1753;SDS011;58380;48.312;9.246;2022-12-11T09:28:35;25.08;;;12.98;;
1753;SDS011;58380;48.312;9.246;2022-12-11T09:31:06;31.08;;;14.80;;
1753;SDS011;58380;48.312;9.246;2022-12-11T09:33:41;33.55;;;15.48;;
1753;SDS011;58380;48.312;9.246;2022-12-11T09:36:07;27.95;;;13.60;;
1753;SDS011;58380;48.312;9.246;2022-12-11T09:38:33;23.30;;;12.18;;
1753;SDS011;58380;48.312;9.246;2022-12-11T09:41:00;20.50;;;11.93;;
1753;SDS011;58380;48.312;9.246;2022-12-11T09:46:41;23.58;;;12.55;;
1753;SDS011;58380;48.312;9.246;2022-12-11T09:49:31;28.77;;;15.60;;
1753;SDS011;58380;48.312;9.246;2022-12-11T09:52:15;21.30;;;12.25;;
1753;SDS011;58380;48.312;9.246;2022-12-11T09:54:54;22.38;;;12.35;;
1753;SDS011;58380;48.312;9.246;2022-12-11T09:57:33;24.15;;;12.35;;
1753;SDS011;58380;48.312;9.246;2022-12-11T10:00:12;22.98;;;12.95;;
1753;SDS011;58380;48.312;9.246;2022-12-11T10:10:40;18.20;;;9.95;;
1753;SDS011;58380;48.312;9.246;2022-12-11T10:16:09;17.27;;;9.40;;
1753;SDS011;58380;48.312;9.246;2022-12-11T10:18:49;17.40;;;9.30;;
1753;SDS011;58380;48.312;9.246;2022-12-11T10:21:16;15.32;;;8.93;;
1753;SDS011;58380;48.312;9.246;2022-12-11T10:23:52;16.80;;;9.27;;
1753;SDS011;58380;48.312;9.246;2022-12-11T10:26:22;15.98;;;9.43;;
1753;SDS011;58380;48.312;9.246;2022-12-11T10:28:48;17.10;;;8.75;;
1753;SDS011;58380;48.312;9.246;2022-12-11T10:31:25;17.80;;;10.52;;
1753;SDS011;58380;48.312;9.246;2022-12-11T10:34:14;18.85;;;9.57;;
1753;SDS011;58380;48.312;9.246;2022-12-11T10:36:58;16.67;;;8.45;;
1753;SDS011;58380;48.312;9.246;2022-12-11T10:39:24;18.92;;;9.30;;
1753;SDS011;58380;48.312;9.246;2022-12-11T10:41:51;20.02;;;9.77;;
1753;SDS011;58380;48.312;9.246;2022-12-11T10:47:05;15.00;;;7.55;;
1753;SDS011;58380;48.312;9.246;2022-12-11T10:49:35;12.75;;;7.18;;
1753;SDS011;58380;48.312;9.246;2022-12-11T10:52:12;15.45;;;6.70;;
1753;SDS011;58380;48.312;9.246;2022-12-11T10:55:06;11.73;;;5.85;;
1753;SDS011;58380;48.312;9.246;2022-12-11T10:57:42;11.05;;;5.97;;
1753;SDS011;58380;48.312;9.246;2022-12-11T11:00:25;11.00;;;4.88;;
1753;SDS011;58380;48.312;9.246;2022-12-11T11:03:22;13.20;;;6.13;;
1753;SDS011;58380;48.312;9.246;2022-12-11T11:06:04;13.98;;;7.00;;
1753;SDS011;58380;48.312;9.246;2022-12-11T11:08:46;14.18;;;6.75;;
1753;SDS011;58380;48.312;9.246;2022-12-11T11:11:25;14.73;;;7.97;;
1753;SDS011;58380;48.312;9.246;2022-12-11T11:16:43;14.05;;;7.57;;
1753;SDS011;58380;48.312;9.246;2022-12-11T11:19:19;16.60;;;7.32;;
1753;SDS011;58380;48.312;9.246;2022-12-11T11:21:52;14.20;;;7.35;;
1753;SDS011;58380;48.312;9.246;2022-12-11T11:24:37;16.00;;;6.78;;
1753;SDS011;58380;48.312;9.246;2022-12-11T11:30:26;9.43;;;4.28;;
1753;SDS011;58380;48.312;9.246;2022-12-11T11:32:57;7.72;;;3.90;;
1753;SDS011;58380;48.312;9.246;2022-12-11T11:35:53;7.22;;;3.20;;
1753;SDS011;58380;48.312;9.246;2022-12-11T11:38:34;5.57;;;2.63;;
1753;SDS011;58380;48.312;9.246;2022-12-11T11:44:29;7.55;;;3.38;;
1753;SDS011;58380;48.312;9.246;2022-12-11T11:47:23;3.50;;;1.65;;
1753;SDS011;58380;48.312;9.246;2022-12-11T11:52:50;3.20;;;1.73;;
1753;SDS011;58380;48.312;9.246;2022-12-11T11:55:45;5.38;;;2.30;;
1753;SDS011;58380;48.312;9.246;2022-12-11T11:58:26;4.80;;;2.17;;
1753;SDS011;58380;48.312;9.246;2022-12-11T12:01:07;7.60;;;2.25;;
1753;SDS011;58380;48.312;9.246;2022-12-11T12:03:40;7.43;;;1.92;;
1753;SDS011;58380;48.312;9.246;2022-12-11T12:08:55;4.63;;;1.92;;
1753;SDS011;58380;48.312;9.246;2022-12-11T12:11:39;4.30;;;2.13;;
1753;SDS011;58380;48.312;9.246;2022-12-11T12:23:31;3.40;;;1.80;;
1753;SDS011;58380;48.312;9.246;2022-12-11T12:26:34;4.95;;;1.75;;
1753;SDS011;58380;48.312;9.246;2022-12-11T12:29:12;3.20;;;1.25;;
1753;SDS011;58380;48.312;9.246;2022-12-11T12:32:09;5.25;;;2.20;;
1753;SDS011;58380;48.312;9.246;2022-12-11T12:37:45;4.75;;;1.70;;
1753;SDS011;58380;48.312;9.246;2022-12-11T12:43:46;3.78;;;1.67;;
1753;SDS011;58380;48.312;9.246;2022-12-11T12:46:38;4.35;;;1.60;;
1753;SDS011;58380;48.312;9.246;2022-12-11T12:49:11;5.25;;;2.05;;
1753;SDS011;58380;48.312;9.246;2022-12-11T12:52:14;3.58;;;2.00;;
1753;SDS011;58380;48.312;9.246;2022-12-11T12:54:47;3.95;;;1.92;;
1753;SDS011;58380;48.312;9.246;2022-12-11T12:57:37;3.25;;;1.60;;
1753;SDS011;58380;48.312;9.246;2022-12-11T13:00:09;4.95;;;1.80;;
1753;SDS011;58380;48.312;9.246;2022-12-11T13:02:57;4.55;;;2.00;;
1753;SDS011;58380;48.312;9.246;2022-12-11T13:05:26;3.60;;;1.35;;
1753;SDS011;58380;48.312;9.246;2022-12-11T13:07:58;4.05;;;1.65;;
1753;SDS011;58380;48.312;9.246;2022-12-11T13:18:40;2.30;;;1.35;;
1753;SDS011;58380;48.312;9.246;2022-12-11T13:21:28;2.63;;;1.00;;
1753;SDS011;58380;48.312;9.246;2022-12-11T13:26:41;3.58;;;0.95;;
1753;SDS011;58380;48.312;9.246;2022-12-11T13:30:02;2.65;;;1.00;;
1753;SDS011;58380;48.312;9.246;2022-12-11T13:34:34;1.80;;;0.85;;
1753;SDS011;58380;48.312;9.246;2022-12-11T13:37:04;2.15;;;1.00;;
1753;SDS011;58380;48.312;9.246;2022-12-11T13:39:45;3.58;;;0.80;;
1753;SDS011;58380;48.312;9.246;2022-12-11T13:42:20;3.80;;;0.90;;
1753;SDS011;58380;48.312;9.246;2022-12-11T13:45:00;3.35;;;0.80;;
1753;SDS011;58380;48.312;9.246;2022-12-11T13:47:28;2.30;;;0.80;;
1753;SDS011;58380;48.312;9.246;2022-12-11T13:50:06;2.33;;;0.80;;
1753;SDS011;58380;48.312;9.246;2022-12-11T13:52:58;2.97;;;0.90;;
1753;SDS011;58380;48.312;9.246;2022-12-11T13:55:26;4.50;;;1.60;;
1753;SDS011;58380;48.312;9.246;2022-12-11T13:58:00;9.57;;;2.63;;
1753;SDS011;58380;48.312;9.246;2022-12-11T14:00:27;7.17;;;1.27;;
1753;SDS011;58380;48.312;9.246;2022-12-11T14:02:56;4.85;;;1.30;;
1753;SDS011;58380;48.312;9.246;2022-12-11T14:05:29;3.10;;;1.42;;
1753;SDS011;58380;48.312;9.246;2022-12-11T14:10:26;2.35;;;1.13;;
1753;SDS011;58380;48.312;9.246;2022-12-11T14:12:59;4.90;;;1.58;;
1753;SDS011;58380;48.312;9.246;2022-12-11T14:15:28;5.55;;;1.50;;
1753;SDS011;58380;48.312;9.246;2022-12-11T14:17:56;7.55;;;3.10;;
1753;SDS011;58380;48.312;9.246;2022-12-11T14:20:25;3.85;;;2.03;;
1753;SDS011;58380;48.312;9.246;2022-12-11T14:23:04;6.38;;;2.72;;
1753;SDS011;58380;48.312;9.246;2022-12-11T14:25:55;5.82;;;2.88;;
1753;SDS011;58380;48.312;9.246;2022-12-11T14:28:28;14.32;;;5.72;;
1753;SDS011;58380;48.312;9.246;2022-12-11T14:31:02;6.90;;;2.92;;
1753;SDS011;58380;48.312;9.246;2022-12-11T14:33:31;6.07;;;2.47;;
1753;SDS011;58380;48.312;9.246;2022-12-11T14:36:07;5.43;;;1.48;;
1753;SDS011;58380;48.312;9.246;2022-12-11T14:38:41;2.65;;;1.13;;
1753;SDS011;58380;48.312;9.246;2022-12-11T14:41:24;1.73;;;1.10;;
1753;SDS011;58380;48.312;9.246;2022-12-11T14:44:04;3.10;;;1.30;;
1753;SDS011;58380;48.312;9.246;2022-12-11T14:46:41;3.65;;;1.30;;
1753;SDS011;58380;48.312;9.246;2022-12-11T14:52:21;6.05;;;2.58;;
1753;SDS011;58380;48.312;9.246;2022-12-11T14:55:20;7.68;;;2.40;;
1753;SDS011;58380;48.312;9.246;2022-12-11T14:57:52;5.97;;;2.55;;
1753;SDS011;58380;48.312;9.246;2022-12-11T15:00:29;5.90;;;2.20;;
1753;SDS011;58380;48.312;9.246;2022-12-11T15:05:30;5.45;;;2.05;;
1753;SDS011;58380;48.312;9.246;2022-12-11T15:10:35;7.28;;;2.47;;
1753;SDS011;58380;48.312;9.246;2022-12-11T15:13:06;6.88;;;2.17;;
1753;SDS011;58380;48.312;9.246;2022-12-11T15:15:43;4.15;;;1.70;;
1753;SDS011;58380;48.312;9.246;2022-12-11T15:18:19;5.75;;;2.35;;
1753;SDS011;58380;48.312;9.246;2022-12-11T15:20:54;8.73;;;3.58;;
1753;SDS011;58380;48.312;9.246;2022-12-11T15:23:25;7.68;;;3.40;;
1753;SDS011;58380;48.312;9.246;2022-12-11T15:25:53;4.82;;;2.20;;
1753;SDS011;58380;48.312;9.246;2022-12-11T15:28:29;9.35;;;3.58;;
1753;SDS011;58380;48.312;9.246;2022-12-11T15:31:06;9.68;;;4.28;;
1753;SDS011;58380;48.312;9.246;2022-12-11T15:33:49;11.82;;;4.10;;
1753;SDS011;58380;48.312;9.246;2022-12-11T15:36:25;8.87;;;3.83;;
1753;SDS011;58380;48.312;9.246;2022-12-11T15:38:58;9.20;;;3.28;;
1753;SDS011;58380;48.312;9.246;2022-12-11T15:41:25;35.13;;;13.35;;
1753;SDS011;58380;48.312;9.246;2022-12-11T15:43:51;24.00;;;9.73;;
1753;SDS011;58380;48.312;9.246;2022-12-11T15:46:20;13.02;;;5.70;;
1753;SDS011;58380;48.312;9.246;2022-12-11T15:48:47;7.53;;;3.55;;
1753;SDS011;58380;48.312;9.246;2022-12-11T15:51:13;10.88;;;3.47;;
1753;SDS011;58380;48.312;9.246;2022-12-11T15:53:40;7.50;;;2.88;;
1753;SDS011;58380;48.312;9.246;2022-12-11T15:56:05;9.65;;;3.70;;
1753;SDS011;58380;48.312;9.246;2022-12-11T15:58:37;9.20;;;4.78;;
1753;SDS011;58380;48.312;9.246;2022-12-11T16:01:02;17.17;;;7.38;;
1753;SDS011;58380;48.312;9.246;2022-12-11T16:03:28;23.85;;;8.63;;
1753;SDS011;58380;48.312;9.246;2022-12-11T16:05:54;9.07;;;3.93;;
1753;SDS011;58380;48.312;9.246;2022-12-11T16:08:21;11.68;;;4.70;;
1753;SDS011;58380;48.312;9.246;2022-12-11T16:10:49;8.88;;;3.42;;
1753;SDS011;58380;48.312;9.246;2022-12-11T16:13:18;7.85;;;3.10;;
1753;SDS011;58380;48.312;9.246;2022-12-11T16:15:45;7.65;;;3.20;;
1753;SDS011;58380;48.312;9.246;2022-12-11T16:18:19;12.75;;;5.35;;
1753;SDS011;58380;48.312;9.246;2022-12-11T16:20:47;13.85;;;6.75;;
1753;SDS011;58380;48.312;9.246;2022-12-11T16:23:13;10.52;;;5.05;;
1753;SDS011;58380;48.312;9.246;2022-12-11T16:25:41;7.03;;;3.70;;
1753;SDS011;58380;48.312;9.246;2022-12-11T16:28:08;6.32;;;3.15;;
1753;SDS011;58380;48.312;9.246;2022-12-11T16:30:36;7.80;;;3.40;;
1753;SDS011;58380;48.312;9.246;2022-12-11T16:33:03;7.35;;;3.80;;
1753;SDS011;58380;48.312;9.246;2022-12-11T16:35:30;7.05;;;3.58;;
1753;SDS011;58380;48.312;9.246;2022-12-11T16:37:56;7.68;;;3.75;;
1753;SDS011;58380;48.312;9.246;2022-12-11T16:40:22;11.60;;;5.00;;
1753;SDS011;58380;48.312;9.246;2022-12-11T16:42:48;7.55;;;4.10;;
1753;SDS011;58380;48.312;9.246;2022-12-11T16:47:46;4.10;;;1.75;;
1753;SDS011;58380;48.312;9.246;2022-12-11T16:52:40;4.80;;;2.13;;
1753;SDS011;58380;48.312;9.246;2022-12-11T16:55:07;6.70;;;2.47;;
1753;SDS011;58380;48.312;9.246;2022-12-11T16:57:34;6.53;;;2.70;;
1753;SDS011;58380;48.312;9.246;2022-12-11T17:00:01;4.35;;;2.20;;
1753;SDS011;58380;48.312;9.246;2022-12-11T17:02:32;4.78;;;2.25;;
1753;SDS011;58380;48.312;9.246;2022-12-11T17:04:59;4.18;;;2.25;;
1753;SDS011;58380;48.312;9.246;2022-12-11T17:07:24;3.95;;;2.30;;
1753;SDS011;58380;48.312;9.246;2022-12-11T17:09:50;5.13;;;2.45;;
1753;SDS011;58380;48.312;9.246;2022-12-11T17:12:15;4.30;;;2.27;;
1753;SDS011;58380;48.312;9.246;2022-12-11T17:14:41;4.38;;;1.90;;
1753;SDS011;58380;48.312;9.246;2022-12-11T17:17:07;4.93;;;2.33;;
1753;SDS011;58380;48.312;9.246;2022-12-11T17:19:33;4.72;;;2.00;;
1753;SDS011;58380;48.312;9.246;2022-12-11T17:22:00;6.18;;;2.45;;
1753;SDS011;58380;48.312;9.246;2022-12-11T17:24:25;3.97;;;2.00;;
1753;SDS011;58380;48.312;9.246;2022-12-11T17:26:51;4.75;;;1.95;;
1753;SDS011;58380;48.312;9.246;2022-12-11T17:31:43;4.25;;;2.10;;
1753;SDS011;58380;48.312;9.246;2022-12-11T17:34:09;5.05;;;1.80;;
1753;SDS011;58380;48.312;9.246;2022-12-11T17:36:35;4.83;;;2.27;;
1753;SDS011;58380;48.312;9.246;2022-12-11T17:39:00;5.77;;;2.30;;
1753;SDS011;58380;48.312;9.246;2022-12-11T17:41:25;8.60;;;2.80;;
1753;SDS011;58380;48.312;9.246;2022-12-11T17:43:51;4.87;;;2.60;;
1753;SDS011;58380;48.312;9.246;2022-12-11T17:46:18;7.82;;;2.72;;
1753;SDS011;58380;48.312;9.246;2022-12-11T17:48:46;5.55;;;2.40;;
1753;SDS011;58380;48.312;9.246;2022-12-11T17:51:13;6.13;;;2.47;;
1753;SDS011;58380;48.312;9.246;2022-12-11T17:53:48;7.03;;;2.47;;
1753;SDS011;58380;48.312;9.246;2022-12-11T17:56:15;4.60;;;2.22;;
1753;SDS011;58380;48.312;9.246;2022-12-11T18:01:07;5.85;;;2.33;;
1753;SDS011;58380;48.312;9.246;2022-12-11T18:03:35;3.65;;;2.00;;
1753;SDS011;58380;48.312;9.246;2022-12-11T18:06:03;5.28;;;2.35;;
1753;SDS011;58380;48.312;9.246;2022-12-11T18:08:32;4.07;;;1.80;;
1753;SDS011;58380;48.312;9.246;2022-12-11T18:11:05;3.92;;;2.10;;
1753;SDS011;58380;48.312;9.246;2022-12-11T18:13:40;4.65;;;2.10;;
1753;SDS011;58380;48.312;9.246;2022-12-11T18:16:27;6.75;;;2.33;;
1753;SDS011;58380;48.312;9.246;2022-12-11T18:18:57;4.65;;;2.20;;
1753;SDS011;58380;48.312;9.246;2022-12-11T18:21:27;4.13;;;2.40;;
1753;SDS011;58380;48.312;9.246;2022-12-11T18:23:59;7.30;;;2.20;;
1753;SDS011;58380;48.312;9.246;2022-12-11T18:26:26;5.82;;;2.60;;
1753;SDS011;58380;48.312;9.246;2022-12-11T18:28:53;3.95;;;2.17;;
1753;SDS011;58380;48.312;9.246;2022-12-11T18:31:19;5.40;;;2.05;;
1753;SDS011;58380;48.312;9.246;2022-12-11T18:33:46;4.30;;;2.30;;
1753;SDS011;58380;48.312;9.246;2022-12-11T18:36:13;4.03;;;1.83;;
1753;SDS011;58380;48.312;9.246;2022-12-11T18:38:42;5.00;;;2.20;;
1753;SDS011;58380;48.312;9.246;2022-12-11T18:41:09;5.35;;;1.90;;
1753;SDS011;58380;48.312;9.246;2022-12-11T18:43:37;5.63;;;2.88;;
1753;SDS011;58380;48.312;9.246;2022-12-11T18:46:03;5.45;;;2.53;;
1753;SDS011;58380;48.312;9.246;2022-12-11T18:48:36;5.47;;;2.00;;
1753;SDS011;58380;48.312;9.246;2022-12-11T18:51:06;4.53;;;2.17;;
1753;SDS011;58380;48.312;9.246;2022-12-11T18:53:35;7.15;;;2.30;;
1753;SDS011;58380;48.312;9.246;2022-12-11T18:56:21;5.10;;;2.60;;
1753;SDS011;58380;48.312;9.246;2022-12-11T18:58:47;4.60;;;2.35;;
1753;SDS011;58380;48.312;9.246;2022-12-11T19:01:18;5.30;;;2.50;;
1753;SDS011;58380;48.312;9.246;2022-12-11T19:03:51;6.70;;;2.47;;
1753;SDS011;58380;48.312;9.246;2022-12-11T19:06:20;6.32;;;2.58;;
1753;SDS011;58380;48.312;9.246;2022-12-11T19:08:48;5.85;;;2.92;;
1753;SDS011;58380;48.312;9.246;2022-12-11T19:11:16;5.13;;;2.10;;
1753;SDS011;58380;48.312;9.246;2022-12-11T19:13:45;5.18;;;2.67;;
1753;SDS011;58380;48.312;9.246;2022-12-11T19:16:18;5.38;;;2.35;;
1753;SDS011;58380;48.312;9.246;2022-12-11T19:18:48;5.80;;;2.45;;
1753;SDS011;58380;48.312;9.246;2022-12-11T19:21:14;4.50;;;2.20;;
1753;SDS011;58380;48.312;9.246;2022-12-11T19:23:41;4.40;;;2.50;;
1753;SDS011;58380;48.312;9.246;2022-12-11T19:26:13;8.18;;;3.22;;
1753;SDS011;58380;48.312;9.246;2022-12-11T19:28:43;9.95;;;5.13;;
1753;SDS011;58380;48.312;9.246;2022-12-11T19:31:12;10.70;;;5.22;;
1753;SDS011;58380;48.312;9.246;2022-12-11T19:33:44;8.73;;;3.97;;
1753;SDS011;58380;48.312;9.246;2022-12-11T19:36:11;6.47;;;2.78;;
1753;SDS011;58380;48.312;9.246;2022-12-11T19:38:41;9.07;;;4.47;;
1753;SDS011;58380;48.312;9.246;2022-12-11T19:41:13;15.98;;;6.35;;
1753;SDS011;58380;48.312;9.246;2022-12-11T19:43:42;18.20;;;7.30;;
1753;SDS011;58380;48.312;9.246;2022-12-11T19:46:09;12.50;;;5.93;;
1753;SDS011;58380;48.312;9.246;2022-12-11T19:48:37;10.32;;;4.40;;
1753;SDS011;58380;48.312;9.246;2022-12-11T19:51:15;9.63;;;4.85;;
1753;SDS011;58380;48.312;9.246;2022-12-11T19:53:44;6.45;;;3.08;;
1753;SDS011;58380;48.312;9.246;2022-12-11T19:56:11;4.18;;;2.58;;
1753;SDS011;58380;48.312;9.246;2022-12-11T19:58:38;7.30;;;3.40;;
1753;SDS011;58380;48.312;9.246;2022-12-11T20:01:04;7.57;;;3.65;;
1753;SDS011;58380;48.312;9.246;2022-12-11T20:03:31;7.20;;;3.08;;
1753;SDS011;58380;48.312;9.246;2022-12-11T20:06:01;6.47;;;3.10;;
1753;SDS011;58380;48.312;9.246;2022-12-11T20:08:32;7.95;;;3.42;;
1753;SDS011;58380;48.312;9.246;2022-12-11T20:11:05;8.05;;;4.00;;
1753;SDS011;58380;48.312;9.246;2022-12-11T20:13:33;16.30;;;6.75;;
1753;SDS011;58380;48.312;9.246;2022-12-11T20:15:59;25.13;;;9.15;;
1753;SDS011;58380;48.312;9.246;2022-12-11T20:18:25;22.83;;;9.70;;
1753;SDS011;58380;48.312;9.246;2022-12-11T20:20:50;47.17;;;20.45;;
1753;SDS011;58380;48.312;9.246;2022-12-11T20:23:16;41.40;;;17.58;;
1753;SDS011;58380;48.312;9.246;2022-12-11T20:25:42;47.95;;;16.45;;
1753;SDS011;58380;48.312;9.246;2022-12-11T20:28:09;29.33;;;13.50;;
1753;SDS011;58380;48.312;9.246;2022-12-11T20:30:34;24.88;;;11.93;;
1753;SDS011;58380;48.312;9.246;2022-12-11T20:33:00;18.13;;;8.50;;
1753;SDS011;58380;48.312;9.246;2022-12-11T20:35:25;21.02;;;9.75;;
1753;SDS011;58380;48.312;9.246;2022-12-11T20:37:51;52.25;;;18.30;;
1753;SDS011;58380;48.312;9.246;2022-12-11T20:40:17;37.83;;;12.80;;
1753;SDS011;58380;48.312;9.246;2022-12-11T20:42:43;11.77;;;5.30;;
1753;SDS011;58380;48.312;9.246;2022-12-11T20:45:09;11.17;;;4.43;;
1753;SDS011;58380;48.312;9.246;2022-12-11T20:50:00;10.07;;;4.25;;
1753;SDS011;58380;48.312;9.246;2022-12-11T20:52:27;7.85;;;3.63;;
1753;SDS011;58380;48.312;9.246;2022-12-11T20:54:53;7.43;;;3.17;;
1753;SDS011;58380;48.312;9.246;2022-12-11T20:57:18;7.65;;;3.75;;
1753;SDS011;58380;48.312;9.246;2022-12-11T20:59:44;10.20;;;4.07;;
1753;SDS011;58380;48.312;9.246;2022-12-11T21:02:13;8.25;;;3.83;;
1753;SDS011;58380;48.312;9.246;2022-12-11T21:04:39;7.97;;;3.97;;
1753;SDS011;58380;48.312;9.246;2022-12-11T21:09:35;8.13;;;4.28;;
1753;SDS011;58380;48.312;9.246;2022-12-11T21:12:02;8.10;;;4.45;;
1753;SDS011;58380;48.312;9.246;2022-12-11T21:14:29;8.52;;;4.82;;
1753;SDS011;58380;48.312;9.246;2022-12-11T21:16:55;8.18;;;4.32;;
1753;SDS011;58380;48.312;9.246;2022-12-11T21:19:21;10.18;;;5.00;;
1753;SDS011;58380;48.312;9.246;2022-12-11T21:21:47;12.07;;;5.22;;
1753;SDS011;58380;48.312;9.246;2022-12-11T21:24:16;9.82;;;5.35;;
1753;SDS011;58380;48.312;9.246;2022-12-11T21:26:45;13.38;;;5.22;;
1753;SDS011;58380;48.312;9.246;2022-12-11T21:31:37;8.70;;;4.22;;
1753;SDS011;58380;48.312;9.246;2022-12-11T21:34:03;11.55;;;4.75;;
1753;SDS011;58380;48.312;9.246;2022-12-11T21:36:30;10.10;;;4.43;;
1753;SDS011;58380;48.312;9.246;2022-12-11T21:38:56;9.18;;;4.18;;
1753;SDS011;58380;48.312;9.246;2022-12-11T21:41:24;11.50;;;5.40;;
1753;SDS011;58380;48.312;9.246;2022-12-11T21:43:50;10.25;;;4.88;;
1753;SDS011;58380;48.312;9.246;2022-12-11T21:46:19;11.32;;;5.47;;
1753;SDS011;58380;48.312;9.246;2022-12-11T21:48:49;10.43;;;5.38;;
1753;SDS011;58380;48.312;9.246;2022-12-11T21:51:20;12.75;;;5.40;;
1753;SDS011;58380;48.312;9.246;2022-12-11T21:53:50;11.60;;;5.05;;
1753;SDS011;58380;48.312;9.246;2022-12-11T21:56:17;13.20;;;5.28;;
1753;SDS011;58380;48.312;9.246;2022-12-11T21:58:46;11.13;;;5.35;;
1753;SDS011;58380;48.312;9.246;2022-12-11T22:01:16;9.65;;;5.18;;
1753;SDS011;58380;48.312;9.246;2022-12-11T22:03:46;9.95;;;5.10;;
1753;SDS011;58380;48.312;9.246;2022-12-11T22:06:13;13.27;;;5.30;;
1753;SDS011;58380;48.312;9.246;2022-12-11T22:08:39;11.70;;;5.07;;
1753;SDS011;58380;48.312;9.246;2022-12-11T22:11:05;12.70;;;5.72;;
1753;SDS011;58380;48.312;9.246;2022-12-11T22:13:31;14.65;;;5.93;;
1753;SDS011;58380;48.312;9.246;2022-12-11T22:15:57;11.98;;;4.72;;
1753;SDS011;58380;48.312;9.246;2022-12-11T22:18:23;13.30;;;5.05;;
1753;SDS011;58380;48.312;9.246;2022-12-11T22:20:51;11.40;;;5.47;;
1753;SDS011;58380;48.312;9.246;2022-12-11T22:23:18;10.35;;;5.28;;
1753;SDS011;58380;48.312;9.246;2022-12-11T22:25:46;10.80;;;4.72;;
1753;SDS011;58380;48.312;9.246;2022-12-11T22:28:12;9.77;;;4.72;;
1753;SDS011;58380;48.312;9.246;2022-12-11T22:33:04;11.57;;;5.03;;
1753;SDS011;58380;48.312;9.246;2022-12-11T22:35:29;9.48;;;5.13;;
